PGT79QC LSZH-LTAI
Flight info
| Callsign | PGT79QC |
|---|---|
| Flight time | 2h 39m |
| Altitude | 33000 |
| Route | DEGES Z2 TUNUM Z204 GEDSO VEKEN GORPA TIVNU MITNO/N0458F350 VABEK UL603 OLOTA RUGAS PEREN RIKSO UP14 LAVTA UN135 NESIL |
| Aircraft | B738/M-SDE2E3FGHIRWXY/LB1 |
Departure
| Time | 2026-05-05 14:18 |
|---|---|
| Airport | Zürich Airport (LSZH) |
Arrival
| Time | 2026-05-05 16:58 |
|---|---|
| Airport | Antalya International Airport (LTAI) |
| Time | Latitude | Longitude | Altitude | Speed | Heading |
|---|---|---|---|---|---|
| 2026-05-05 13:50 | 47.46188 | 8.55285 | 1396 ft | 0 kts | 186° |
| 2026-05-05 14:09 | 47.46189 | 8.55285 | 1396 ft | 2 kts | 186° |
| 2026-05-05 14:09 | 47.46214 | 8.55288 | 1398 ft | 4 kts | 180° |
| 2026-05-05 14:09 | 47.46241 | 8.55285 | 1403 ft | 4 kts | 167° |
| 2026-05-05 14:10 | 47.46265 | 8.55272 | 1399 ft | 4 kts | 134° |
| 2026-05-05 14:10 | 47.46273 | 8.55256 | 1404 ft | 2 kts | 97° |
| 2026-05-05 14:10 | 47.46273 | 8.55254 | 1403 ft | 1 kts | 96° |
| 2026-05-05 14:12 | 47.46273 | 8.55255 | 1404 ft | 1 kts | 96° |
| 2026-05-05 14:12 | 47.46270 | 8.55296 | 1402 ft | 7 kts | 96° |
| 2026-05-05 14:12 | 47.46263 | 8.55390 | 1398 ft | 10 kts | 96° |
| 2026-05-05 14:12 | 47.46255 | 8.55497 | 1398 ft | 10 kts | 96° |
| 2026-05-05 14:13 | 47.46247 | 8.55605 | 1396 ft | 11 kts | 96° |
| 2026-05-05 14:13 | 47.46240 | 8.55710 | 1397 ft | 10 kts | 96° |
| 2026-05-05 14:13 | 47.46233 | 8.55804 | 1397 ft | 9 kts | 96° |
| 2026-05-05 14:13 | 47.46226 | 8.55901 | 1397 ft | 10 kts | 96° |
| 2026-05-05 14:14 | 47.46202 | 8.55998 | 1403 ft | 10 kts | 131° |
| 2026-05-05 14:14 | 47.46152 | 8.56071 | 1404 ft | 10 kts | 136° |
| 2026-05-05 14:14 | 47.46100 | 8.56145 | 1401 ft | 12 kts | 137° |
| 2026-05-05 14:14 | 47.46035 | 8.56232 | 1400 ft | 13 kts | 137° |
| 2026-05-05 14:15 | 47.45940 | 8.56313 | 1405 ft | 12 kts | 183° |
| 2026-05-05 14:15 | 47.45883 | 8.56307 | 1405 ft | 12 kts | 186° |
| 2026-05-05 14:15 | 47.45801 | 8.56293 | 1402 ft | 12 kts | 186° |
| 2026-05-05 14:15 | 47.45765 | 8.56287 | 1401 ft | 1 kts | 187° |
| 2026-05-05 14:16 | 47.45738 | 8.56280 | 1398 ft | 6 kts | 201° |
| 2026-05-05 14:16 | 47.45718 | 8.56219 | 1404 ft | 7 kts | 272° |
| 2026-05-05 14:16 | 47.45719 | 8.56210 | 1404 ft | 0 kts | 275° |
| 2026-05-05 14:17 | 47.45720 | 8.56183 | 1405 ft | 14 kts | 275° |
| 2026-05-05 14:17 | 47.45759 | 8.55643 | 1395 ft | 91 kts | 275° |
| 2026-05-05 14:18 | 47.45849 | 8.54360 | 1405 ft | 157 kts | 276° |
| 2026-05-05 14:18 | 47.45969 | 8.52599 | 1893 ft | 177 kts | 276° |
| 2026-05-05 14:18 | 47.46109 | 8.50767 | 2866 ft | 181 kts | 277° |
| 2026-05-05 14:18 | 47.46249 | 8.48810 | 3394 ft | 200 kts | 271° |
| 2026-05-05 14:19 | 47.45883 | 8.46812 | 3758 ft | 211 kts | 231° |
| 2026-05-05 14:19 | 47.44640 | 8.45609 | 4166 ft | 227 kts | 199° |
| 2026-05-05 14:19 | 47.43016 | 8.45575 | 4534 ft | 243 kts | 167° |
| 2026-05-05 14:19 | 47.41543 | 8.46832 | 5057 ft | 252 kts | 136° |
| 2026-05-05 14:20 | 47.40686 | 8.49089 | 5672 ft | 257 kts | 105° |
| 2026-05-05 14:20 | 47.40722 | 8.51725 | 6253 ft | 263 kts | 74° |
| 2026-05-05 14:20 | 47.41682 | 8.54002 | 6767 ft | 266 kts | 42° |
| 2026-05-05 14:20 | 47.42983 | 8.55957 | 7207 ft | 273 kts | 60° |
| 2026-05-05 14:21 | 47.43642 | 8.58652 | 7443 ft | 288 kts | 79° |
| 2026-05-05 14:21 | 47.44033 | 8.61613 | 7972 ft | 297 kts | 81° |
| 2026-05-05 14:21 | 47.44415 | 8.64632 | 8745 ft | 300 kts | 81° |
| 2026-05-05 14:21 | 47.44803 | 8.67677 | 9502 ft | 304 kts | 81° |
| 2026-05-05 14:22 | 47.45207 | 8.70777 | 10165 ft | 310 kts | 81° |
| 2026-05-05 14:22 | 47.45629 | 8.73995 | 10476 ft | 331 kts | 81° |
| 2026-05-05 14:22 | 47.46082 | 8.77446 | 10641 ft | 353 kts | 81° |
| 2026-05-05 14:22 | 47.46469 | 8.81122 | 10852 ft | 371 kts | 88° |
| 2026-05-05 14:23 | 47.46389 | 8.85020 | 10952 ft | 389 kts | 101° |
| 2026-05-05 14:23 | 47.45834 | 8.88992 | 11316 ft | 398 kts | 105° |
| 2026-05-05 14:23 | 47.45206 | 8.92976 | 12087 ft | 396 kts | 105° |
| 2026-05-05 14:23 | 47.44605 | 8.96958 | 12745 ft | 400 kts | 104° |
| 2026-05-05 14:24 | 47.44018 | 9.01006 | 13268 ft | 406 kts | 104° |
| 2026-05-05 14:24 | 47.43431 | 9.05098 | 13844 ft | 409 kts | 103° |
| 2026-05-05 14:24 | 47.42839 | 9.09223 | 14431 ft | 412 kts | 104° |
| 2026-05-05 14:24 | 47.42250 | 9.13309 | 14990 ft | 414 kts | 104° |
| 2026-05-05 14:25 | 47.41644 | 9.17483 | 15537 ft | 417 kts | 104° |
| 2026-05-05 14:25 | 47.41056 | 9.21685 | 16065 ft | 421 kts | 101° |
| 2026-05-05 14:25 | 47.41122 | 9.26027 | 16530 ft | 430 kts | 79° |
| 2026-05-05 14:25 | 47.42212 | 9.30138 | 17053 ft | 433 kts | 62° |
| 2026-05-05 14:26 | 47.43572 | 9.34110 | 17494 ft | 435 kts | 72° |
| 2026-05-05 14:26 | 47.44281 | 9.38445 | 17933 ft | 435 kts | 82° |
| 2026-05-05 14:26 | 47.44787 | 9.42852 | 18331 ft | 437 kts | 82° |
| 2026-05-05 14:26 | 47.45361 | 9.47279 | 18692 ft | 440 kts | 80° |
| 2026-05-05 14:27 | 47.46003 | 9.51715 | 19046 ft | 442 kts | 79° |
| 2026-05-05 14:27 | 47.46672 | 9.56155 | 19398 ft | 445 kts | 79° |
| 2026-05-05 14:27 | 47.47171 | 9.60668 | 19730 ft | 445 kts | 88° |
| 2026-05-05 14:27 | 47.47131 | 9.65227 | 20048 ft | 444 kts | 97° |
| 2026-05-05 14:28 | 47.46849 | 9.69782 | 20379 ft | 447 kts | 98° |
| 2026-05-05 14:28 | 47.46553 | 9.74362 | 20725 ft | 449 kts | 98° |
| 2026-05-05 14:28 | 47.46265 | 9.78964 | 21078 ft | 451 kts | 98° |
| 2026-05-05 14:28 | 47.45988 | 9.83590 | 21407 ft | 453 kts | 98° |
| 2026-05-05 14:29 | 47.45721 | 9.88236 | 21715 ft | 455 kts | 97° |
| 2026-05-05 14:29 | 47.45458 | 9.92897 | 22020 ft | 457 kts | 97° |
| 2026-05-05 14:29 | 47.45194 | 9.97582 | 22357 ft | 458 kts | 97° |
| 2026-05-05 14:29 | 47.44928 | 10.02289 | 22644 ft | 461 kts | 98° |
| 2026-05-05 14:30 | 47.44658 | 10.07011 | 22881 ft | 463 kts | 98° |
| 2026-05-05 14:30 | 47.44383 | 10.11773 | 23059 ft | 467 kts | 98° |
| 2026-05-05 14:30 | 47.44103 | 10.16568 | 23342 ft | 469 kts | 98° |
| 2026-05-05 14:30 | 47.43723 | 10.21341 | 23606 ft | 468 kts | 103° |
| 2026-05-05 14:31 | 47.43116 | 10.26055 | 23817 ft | 468 kts | 105° |
| 2026-05-05 14:31 | 47.42422 | 10.30758 | 24052 ft | 469 kts | 106° |
| 2026-05-05 14:31 | 47.41725 | 10.35458 | 24318 ft | 470 kts | 105° |
| 2026-05-05 14:31 | 47.41055 | 10.40187 | 24536 ft | 472 kts | 105° |
| 2026-05-05 14:32 | 47.40405 | 10.44944 | 24733 ft | 473 kts | 105° |
| 2026-05-05 14:32 | 47.39762 | 10.49708 | 24879 ft | 475 kts | 105° |
| 2026-05-05 14:32 | 47.39108 | 10.54500 | 25003 ft | 478 kts | 105° |
| 2026-05-05 14:32 | 47.38444 | 10.59307 | 25271 ft | 477 kts | 105° |
| 2026-05-05 14:33 | 47.37779 | 10.64105 | 25560 ft | 478 kts | 105° |
| 2026-05-05 14:33 | 47.37110 | 10.68912 | 25743 ft | 479 kts | 105° |
| 2026-05-05 14:33 | 47.36435 | 10.73738 | 25875 ft | 482 kts | 105° |
| 2026-05-05 14:33 | 47.35756 | 10.78589 | 26045 ft | 483 kts | 105° |
| 2026-05-05 14:34 | 47.35077 | 10.83437 | 26298 ft | 483 kts | 105° |
| 2026-05-05 14:34 | 47.34397 | 10.88276 | 26569 ft | 481 kts | 105° |
| 2026-05-05 14:34 | 47.33719 | 10.93088 | 26978 ft | 477 kts | 105° |
| 2026-05-05 14:34 | 47.33044 | 10.97868 | 27297 ft | 476 kts | 106° |
| 2026-05-05 14:35 | 47.32364 | 11.02648 | 27547 ft | 477 kts | 106° |
| 2026-05-05 14:35 | 47.31683 | 11.07428 | 27794 ft | 477 kts | 106° |
| 2026-05-05 14:35 | 47.30999 | 11.12208 | 28105 ft | 476 kts | 106° |
| 2026-05-05 14:35 | 47.30317 | 11.16966 | 28475 ft | 474 kts | 106° |
| 2026-05-05 14:36 | 47.29637 | 11.21705 | 28798 ft | 472 kts | 106° |
| 2026-05-05 14:36 | 47.28953 | 11.26442 | 29060 ft | 472 kts | 106° |
| 2026-05-05 14:36 | 47.28268 | 11.31176 | 29323 ft | 472 kts | 106° |
| 2026-05-05 14:36 | 47.27593 | 11.35830 | 29603 ft | 471 kts | 106° |
| 2026-05-05 14:37 | 47.26908 | 11.40543 | 29900 ft | 470 kts | 106° |
| 2026-05-05 14:37 | 47.26220 | 11.45241 | 30131 ft | 469 kts | 107° |
| 2026-05-05 14:37 | 47.25285 | 11.49822 | 30253 ft | 466 kts | 116° |
| 2026-05-05 14:37 | 47.23870 | 11.54159 | 30340 ft | 463 kts | 125° |
| 2026-05-05 14:38 | 47.22089 | 11.58019 | 30506 ft | 460 kts | 130° |
| 2026-05-05 14:38 | 47.20219 | 11.61823 | 30705 ft | 460 kts | 130° |
| 2026-05-05 14:38 | 47.16471 | 11.69500 | 30998 ft | 462 kts | 129° |
| 2026-05-05 14:39 | 47.14623 | 11.73341 | 31264 ft | 461 kts | 129° |
| 2026-05-05 14:39 | 47.12775 | 11.77197 | 31403 ft | 462 kts | 129° |
| 2026-05-05 14:39 | 47.10924 | 11.81058 | 31535 ft | 463 kts | 129° |
| 2026-05-05 14:39 | 47.09066 | 11.84924 | 31781 ft | 463 kts | 129° |
| 2026-05-05 14:40 | 47.07311 | 11.88894 | 32009 ft | 467 kts | 122° |
| 2026-05-05 14:40 | 47.05824 | 11.93153 | 32177 ft | 471 kts | 120° |
| 2026-05-05 14:40 | 47.04406 | 11.97485 | 32389 ft | 472 kts | 119° |
| 2026-05-05 14:40 | 47.03005 | 12.01833 | 32613 ft | 471 kts | 119° |
| 2026-05-05 14:41 | 47.01601 | 12.06168 | 32827 ft | 471 kts | 120° |
| 2026-05-05 14:41 | 47.00182 | 12.10498 | 32907 ft | 473 kts | 120° |
| 2026-05-05 14:41 | 46.97289 | 12.19177 | 32976 ft | 474 kts | 120° |
| 2026-05-05 14:42 | 46.94381 | 12.27802 | 32968 ft | 471 kts | 120° |
| 2026-05-05 14:42 | 46.91478 | 12.36363 | 32947 ft | 469 kts | 120° |
| 2026-05-05 14:43 | 46.88550 | 12.44972 | 32991 ft | 477 kts | 120° |
| 2026-05-05 14:43 | 46.85573 | 12.53706 | 32981 ft | 481 kts | 120° |
| 2026-05-05 14:44 | 46.82586 | 12.62447 | 32972 ft | 481 kts | 120° |
| 2026-05-05 14:44 | 46.79591 | 12.71181 | 32956 ft | 481 kts | 120° |
| 2026-05-05 14:45 | 46.76592 | 12.79894 | 32968 ft | 481 kts | 120° |
| 2026-05-05 14:45 | 46.73586 | 12.88599 | 32977 ft | 480 kts | 120° |
| 2026-05-05 14:46 | 46.70582 | 12.97270 | 32988 ft | 479 kts | 120° |
| 2026-05-05 14:46 | 46.67570 | 13.05935 | 32978 ft | 479 kts | 120° |
| 2026-05-05 14:47 | 46.64558 | 13.14573 | 32971 ft | 477 kts | 120° |
| 2026-05-05 14:47 | 46.61552 | 13.23166 | 32968 ft | 476 kts | 120° |
| 2026-05-05 14:48 | 46.58548 | 13.31729 | 32988 ft | 475 kts | 120° |
| 2026-05-05 14:48 | 46.55526 | 13.40269 | 32989 ft | 475 kts | 121° |
| 2026-05-05 14:49 | 46.52301 | 13.48662 | 32982 ft | 477 kts | 123° |
| 2026-05-05 14:49 | 46.49000 | 13.57006 | 33007 ft | 477 kts | 123° |
| 2026-05-05 14:50 | 46.45725 | 13.65329 | 32992 ft | 479 kts | 122° |
| 2026-05-05 14:50 | 46.42435 | 13.73731 | 32994 ft | 479 kts | 122° |
| 2026-05-05 14:51 | 46.39140 | 13.82141 | 32984 ft | 481 kts | 122° |
| 2026-05-05 14:51 | 46.35832 | 13.90559 | 32988 ft | 481 kts | 122° |
| 2026-05-05 14:52 | 46.32522 | 13.98955 | 33001 ft | 480 kts | 122° |
| 2026-05-05 14:52 | 46.29203 | 14.07344 | 33012 ft | 480 kts | 122° |
| 2026-05-05 14:53 | 46.25876 | 14.15727 | 33014 ft | 481 kts | 122° |
| 2026-05-05 14:53 | 46.22539 | 14.24112 | 33006 ft | 482 kts | 122° |
| 2026-05-05 14:54 | 46.19188 | 14.32505 | 33031 ft | 482 kts | 122° |
| 2026-05-05 14:54 | 46.15830 | 14.40891 | 33013 ft | 482 kts | 122° |
| 2026-05-05 14:55 | 46.12474 | 14.49245 | 33018 ft | 482 kts | 122° |
| 2026-05-05 14:55 | 46.09113 | 14.57590 | 33027 ft | 481 kts | 122° |
| 2026-05-05 14:56 | 46.05746 | 14.65920 | 33022 ft | 482 kts | 122° |
| 2026-05-05 14:56 | 46.02366 | 14.74261 | 33000 ft | 482 kts | 122° |
| 2026-05-05 14:57 | 45.99556 | 14.81174 | 32981 ft | 481 kts | 122° |
| 2026-05-05 14:57 | 45.96185 | 14.89442 | 32991 ft | 478 kts | 122° |
| 2026-05-05 14:58 | 45.92828 | 14.97657 | 32995 ft | 476 kts | 122° |
| 2026-05-05 14:58 | 45.89474 | 15.05840 | 32989 ft | 475 kts | 123° |
| 2026-05-05 14:59 | 45.86118 | 15.14002 | 32972 ft | 475 kts | 123° |
| 2026-05-05 14:59 | 45.82764 | 15.22139 | 32966 ft | 474 kts | 123° |
| 2026-05-05 15:00 | 45.79403 | 15.30268 | 32974 ft | 473 kts | 123° |
| 2026-05-05 15:00 | 45.76019 | 15.38342 | 32978 ft | 472 kts | 124° |
| 2026-05-05 15:01 | 45.72408 | 15.46195 | 32974 ft | 472 kts | 126° |
| 2026-05-05 15:01 | 45.68736 | 15.53977 | 32989 ft | 473 kts | 126° |
| 2026-05-05 15:02 | 45.65071 | 15.61804 | 32975 ft | 474 kts | 126° |
| 2026-05-05 15:02 | 45.61446 | 15.69592 | 32978 ft | 474 kts | 126° |
| 2026-05-05 15:03 | 45.57797 | 15.77431 | 32981 ft | 474 kts | 126° |
| 2026-05-05 15:03 | 45.54146 | 15.85253 | 32987 ft | 473 kts | 126° |
| 2026-05-05 15:04 | 45.50490 | 15.93054 | 32982 ft | 473 kts | 126° |
| 2026-05-05 15:04 | 45.46832 | 16.00842 | 32983 ft | 473 kts | 126° |
| 2026-05-05 15:05 | 45.41340 | 16.12492 | 32965 ft | 472 kts | 126° |
| 2026-05-05 15:06 | 45.37680 | 16.20231 | 32985 ft | 471 kts | 126° |
| 2026-05-05 15:06 | 45.34021 | 16.27945 | 32985 ft | 471 kts | 126° |
| 2026-05-05 15:07 | 45.30353 | 16.35658 | 32988 ft | 471 kts | 126° |
| 2026-05-05 15:07 | 45.26682 | 16.43357 | 32981 ft | 471 kts | 126° |
| 2026-05-05 15:08 | 45.23005 | 16.51039 | 32979 ft | 470 kts | 126° |
| 2026-05-05 15:08 | 45.19334 | 16.58704 | 32982 ft | 469 kts | 126° |
| 2026-05-05 15:09 | 45.15660 | 16.66349 | 32978 ft | 469 kts | 127° |
| 2026-05-05 15:09 | 45.11980 | 16.73978 | 32964 ft | 469 kts | 127° |
| 2026-05-05 15:10 | 45.08303 | 16.81588 | 32975 ft | 468 kts | 127° |
| 2026-05-05 15:10 | 45.04624 | 16.89186 | 32978 ft | 468 kts | 127° |
| 2026-05-05 15:11 | 45.00939 | 16.96773 | 32971 ft | 468 kts | 127° |
| 2026-05-05 15:11 | 44.97250 | 17.04348 | 32955 ft | 468 kts | 127° |
| 2026-05-05 15:12 | 44.93480 | 17.11823 | 32977 ft | 467 kts | 129° |
| 2026-05-05 15:12 | 44.89579 | 17.19138 | 32966 ft | 467 kts | 129° |
| 2026-05-05 15:13 | 44.85670 | 17.26439 | 32966 ft | 466 kts | 129° |
| 2026-05-05 15:13 | 44.81775 | 17.33754 | 32960 ft | 467 kts | 129° |
| 2026-05-05 15:14 | 44.77920 | 17.41030 | 32974 ft | 467 kts | 129° |
| 2026-05-05 15:14 | 44.74024 | 17.48338 | 32965 ft | 467 kts | 129° |
| 2026-05-05 15:15 | 44.70112 | 17.55655 | 32968 ft | 468 kts | 129° |
| 2026-05-05 15:15 | 44.66197 | 17.62965 | 32970 ft | 468 kts | 129° |
| 2026-05-05 15:16 | 44.62275 | 17.70273 | 32959 ft | 469 kts | 129° |
| 2026-05-05 15:16 | 44.58344 | 17.77581 | 32980 ft | 470 kts | 129° |
| 2026-05-05 15:17 | 44.54396 | 17.84898 | 32960 ft | 471 kts | 129° |
| 2026-05-05 15:17 | 44.50432 | 17.92224 | 32983 ft | 472 kts | 129° |
| 2026-05-05 15:18 | 44.46456 | 17.99562 | 32965 ft | 474 kts | 129° |
| 2026-05-05 15:18 | 44.42464 | 18.06917 | 32971 ft | 475 kts | 129° |
| 2026-05-05 15:19 | 44.38454 | 18.14267 | 32983 ft | 476 kts | 129° |
| 2026-05-05 15:19 | 44.34436 | 18.21615 | 32982 ft | 477 kts | 129° |
| 2026-05-05 15:20 | 44.30396 | 18.28984 | 32977 ft | 478 kts | 129° |
| 2026-05-05 15:20 | 44.26352 | 18.36357 | 32970 ft | 479 kts | 129° |
| 2026-05-05 15:21 | 44.22293 | 18.43729 | 32995 ft | 479 kts | 129° |
| 2026-05-05 15:21 | 44.18220 | 18.51104 | 32981 ft | 481 kts | 129° |
| 2026-05-05 15:22 | 44.14141 | 18.58475 | 32994 ft | 480 kts | 129° |
| 2026-05-05 15:22 | 44.10061 | 18.65828 | 32999 ft | 480 kts | 129° |
| 2026-05-05 15:23 | 44.05973 | 18.73178 | 32988 ft | 480 kts | 129° |
| 2026-05-05 15:23 | 44.01884 | 18.80512 | 32999 ft | 480 kts | 129° |
| 2026-05-05 15:24 | 43.97790 | 18.87838 | 32990 ft | 480 kts | 130° |
| 2026-05-05 15:24 | 43.93692 | 18.95149 | 33007 ft | 480 kts | 130° |
| 2026-05-05 15:25 | 43.89582 | 19.02463 | 33003 ft | 481 kts | 130° |
| 2026-05-05 15:25 | 43.85490 | 19.09731 | 33000 ft | 482 kts | 129° |
| 2026-05-05 15:26 | 43.81330 | 19.17100 | 33002 ft | 483 kts | 129° |
| 2026-05-05 15:26 | 43.77212 | 19.24380 | 32979 ft | 483 kts | 129° |
| 2026-05-05 15:27 | 43.73099 | 19.31819 | 33002 ft | 484 kts | 128° |
| 2026-05-05 15:27 | 43.69071 | 19.39220 | 32981 ft | 486 kts | 128° |
| 2026-05-05 15:28 | 43.65004 | 19.46666 | 32991 ft | 486 kts | 128° |
| 2026-05-05 15:28 | 43.60916 | 19.54105 | 32995 ft | 486 kts | 129° |
| 2026-05-05 15:29 | 43.56814 | 19.61539 | 32992 ft | 488 kts | 129° |
| 2026-05-05 15:29 | 43.52687 | 19.68987 | 32990 ft | 490 kts | 128° |
| 2026-05-05 15:30 | 43.48555 | 19.76451 | 33007 ft | 491 kts | 128° |
| 2026-05-05 15:30 | 43.44400 | 19.83929 | 33003 ft | 492 kts | 128° |
| 2026-05-05 15:31 | 43.40239 | 19.91394 | 33006 ft | 492 kts | 128° |
| 2026-05-05 15:31 | 43.36067 | 19.98858 | 33007 ft | 492 kts | 128° |
| 2026-05-05 15:32 | 43.31893 | 20.06311 | 33011 ft | 492 kts | 128° |
| 2026-05-05 15:32 | 43.27711 | 20.13758 | 33001 ft | 492 kts | 128° |
| 2026-05-05 15:33 | 43.23523 | 20.21196 | 33013 ft | 493 kts | 128° |
| 2026-05-05 15:33 | 43.19324 | 20.28636 | 33019 ft | 494 kts | 128° |
| 2026-05-05 15:34 | 43.15111 | 20.36083 | 33007 ft | 495 kts | 128° |
| 2026-05-05 15:34 | 43.10896 | 20.43515 | 33004 ft | 494 kts | 128° |
| 2026-05-05 15:35 | 43.06670 | 20.50949 | 33005 ft | 495 kts | 128° |
| 2026-05-05 15:35 | 43.02440 | 20.58372 | 33018 ft | 496 kts | 128° |
| 2026-05-05 15:36 | 42.97980 | 20.65479 | 33019 ft | 496 kts | 136° |
| 2026-05-05 15:36 | 42.92964 | 20.71959 | 33020 ft | 497 kts | 138° |
| 2026-05-05 15:37 | 42.87893 | 20.78387 | 33017 ft | 498 kts | 138° |
| 2026-05-05 15:37 | 42.82862 | 20.84864 | 33021 ft | 498 kts | 137° |
| 2026-05-05 15:38 | 42.77861 | 20.91358 | 33034 ft | 498 kts | 137° |
| 2026-05-05 15:38 | 42.72846 | 20.97868 | 33020 ft | 498 kts | 137° |
| 2026-05-05 15:39 | 42.67834 | 21.04354 | 33026 ft | 498 kts | 137° |
| 2026-05-05 15:39 | 42.62811 | 21.10834 | 33010 ft | 498 kts | 137° |
| 2026-05-05 15:40 | 42.57788 | 21.17294 | 33025 ft | 498 kts | 137° |
| 2026-05-05 15:40 | 42.52753 | 21.23760 | 33020 ft | 499 kts | 137° |
| 2026-05-05 15:41 | 42.47710 | 21.30222 | 33028 ft | 499 kts | 137° |
| 2026-05-05 15:41 | 42.42654 | 21.36684 | 33018 ft | 500 kts | 137° |
| 2026-05-05 15:42 | 42.37590 | 21.43141 | 33013 ft | 501 kts | 137° |
| 2026-05-05 15:42 | 42.32516 | 21.49596 | 33006 ft | 501 kts | 137° |
| 2026-05-05 15:43 | 42.27438 | 21.56043 | 32999 ft | 501 kts | 137° |
| 2026-05-05 15:43 | 42.22357 | 21.62484 | 32989 ft | 501 kts | 137° |
| 2026-05-05 15:44 | 42.18199 | 21.67932 | 32995 ft | 501 kts | 135° |
| 2026-05-05 15:44 | 42.13249 | 21.74558 | 32995 ft | 501 kts | 135° |
| 2026-05-05 15:45 | 42.08292 | 21.81169 | 33003 ft | 502 kts | 135° |
| 2026-05-05 15:45 | 42.03318 | 21.87753 | 32993 ft | 502 kts | 135° |
| 2026-05-05 15:46 | 41.98324 | 21.94334 | 32985 ft | 503 kts | 135° |
| 2026-05-05 15:46 | 41.93328 | 22.00901 | 32996 ft | 503 kts | 135° |
| 2026-05-05 15:47 | 41.88322 | 22.07468 | 32990 ft | 503 kts | 135° |
| 2026-05-05 15:47 | 41.83305 | 22.14035 | 32998 ft | 504 kts | 135° |
| 2026-05-05 15:48 | 41.78286 | 22.20590 | 32998 ft | 504 kts | 135° |
| 2026-05-05 15:48 | 41.73260 | 22.27139 | 33004 ft | 504 kts | 135° |
| 2026-05-05 15:49 | 41.68226 | 22.33682 | 32996 ft | 505 kts | 136° |
| 2026-05-05 15:49 | 41.63189 | 22.40216 | 33001 ft | 504 kts | 136° |
| 2026-05-05 15:50 | 41.58153 | 22.46733 | 33017 ft | 504 kts | 135° |
| 2026-05-05 15:50 | 41.53101 | 22.53256 | 32993 ft | 505 kts | 136° |
| 2026-05-05 15:51 | 41.48048 | 22.59765 | 33001 ft | 505 kts | 136° |
| 2026-05-05 15:51 | 41.42989 | 22.66268 | 32999 ft | 505 kts | 136° |
| 2026-05-05 15:52 | 41.37925 | 22.72764 | 32998 ft | 505 kts | 136° |
| 2026-05-05 15:52 | 41.32868 | 22.79262 | 33011 ft | 506 kts | 134° |
| 2026-05-05 15:53 | 41.28295 | 22.86368 | 32976 ft | 505 kts | 128° |
| 2026-05-05 15:53 | 41.23939 | 22.93676 | 32997 ft | 504 kts | 127° |
| 2026-05-05 15:54 | 41.19558 | 23.00947 | 32994 ft | 504 kts | 128° |
| 2026-05-05 15:54 | 41.15127 | 23.08170 | 32991 ft | 504 kts | 128° |
| 2026-05-05 15:55 | 41.10679 | 23.15362 | 32995 ft | 504 kts | 128° |
| 2026-05-05 15:55 | 41.06236 | 23.22531 | 32995 ft | 502 kts | 128° |
| 2026-05-05 15:56 | 41.01802 | 23.29676 | 32993 ft | 502 kts | 128° |
| 2026-05-05 15:56 | 40.97368 | 23.36805 | 32985 ft | 501 kts | 128° |
| 2026-05-05 15:57 | 40.92962 | 23.43875 | 33021 ft | 501 kts | 128° |
| 2026-05-05 15:57 | 40.88514 | 23.50994 | 33008 ft | 503 kts | 128° |
| 2026-05-05 15:58 | 40.84055 | 23.58115 | 33002 ft | 504 kts | 128° |
| 2026-05-05 15:58 | 40.79576 | 23.65251 | 33014 ft | 505 kts | 128° |
| 2026-05-05 15:59 | 40.75087 | 23.72386 | 33003 ft | 505 kts | 128° |
| 2026-05-05 15:59 | 40.70592 | 23.79514 | 33026 ft | 506 kts | 128° |
| 2026-05-05 16:00 | 40.66088 | 23.86641 | 33013 ft | 507 kts | 128° |
| 2026-05-05 16:00 | 40.61571 | 23.93774 | 33029 ft | 507 kts | 128° |
| 2026-05-05 16:01 | 40.56998 | 24.00848 | 33027 ft | 508 kts | 130° |
| 2026-05-05 16:01 | 40.52232 | 24.07731 | 33045 ft | 509 kts | 131° |
| 2026-05-05 16:02 | 40.47428 | 24.14580 | 33030 ft | 510 kts | 131° |
| 2026-05-05 16:02 | 40.42637 | 24.21460 | 33027 ft | 510 kts | 130° |
| 2026-05-05 16:03 | 40.37858 | 24.28351 | 33026 ft | 511 kts | 130° |
| 2026-05-05 16:03 | 40.33080 | 24.35237 | 33029 ft | 511 kts | 130° |
| 2026-05-05 16:04 | 40.28293 | 24.42117 | 33046 ft | 511 kts | 130° |
| 2026-05-05 16:04 | 40.23499 | 24.48988 | 33034 ft | 511 kts | 130° |
| 2026-05-05 16:05 | 40.18699 | 24.55851 | 33032 ft | 511 kts | 131° |
| 2026-05-05 16:05 | 40.13900 | 24.62698 | 33032 ft | 511 kts | 131° |
| 2026-05-05 16:06 | 40.09098 | 24.69533 | 33038 ft | 510 kts | 131° |
| 2026-05-05 16:06 | 40.04297 | 24.76353 | 33037 ft | 510 kts | 131° |
| 2026-05-05 16:07 | 39.99491 | 24.83162 | 33042 ft | 510 kts | 131° |
| 2026-05-05 16:07 | 39.94685 | 24.89959 | 33043 ft | 510 kts | 131° |
| 2026-05-05 16:08 | 39.89910 | 24.96695 | 33046 ft | 509 kts | 131° |
| 2026-05-05 16:08 | 39.85101 | 25.03465 | 33060 ft | 510 kts | 131° |
| 2026-05-05 16:09 | 39.80276 | 25.10242 | 33052 ft | 510 kts | 131° |
| 2026-05-05 16:09 | 39.75446 | 25.17011 | 33051 ft | 511 kts | 131° |
| 2026-05-05 16:10 | 39.70607 | 25.23778 | 33050 ft | 512 kts | 131° |
| 2026-05-05 16:10 | 39.65757 | 25.30545 | 33053 ft | 512 kts | 131° |
| 2026-05-05 16:11 | 39.60893 | 25.37317 | 33051 ft | 513 kts | 131° |
| 2026-05-05 16:12 | 39.51144 | 25.50845 | 33045 ft | 514 kts | 131° |
| 2026-05-05 16:13 | 39.38926 | 25.67714 | 33050 ft | 514 kts | 131° |
| 2026-05-05 16:13 | 39.34068 | 25.74396 | 33047 ft | 514 kts | 131° |
| 2026-05-05 16:14 | 39.24269 | 25.87829 | 33052 ft | 513 kts | 131° |
| 2026-05-05 16:15 | 39.14475 | 26.01199 | 33032 ft | 512 kts | 131° |
| 2026-05-05 16:16 | 39.04697 | 26.14489 | 33039 ft | 511 kts | 131° |
| 2026-05-05 16:17 | 38.97348 | 26.24440 | 33038 ft | 512 kts | 131° |
| 2026-05-05 16:18 | 38.89974 | 26.34396 | 33042 ft | 513 kts | 131° |
| 2026-05-05 16:18 | 38.85311 | 26.41281 | 33034 ft | 509 kts | 119° |
| 2026-05-05 16:19 | 38.83656 | 26.45264 | 33046 ft | 503 kts | 109° |
| 2026-05-05 16:19 | 38.81411 | 26.58145 | 33060 ft | 493 kts | 93° |
| 2026-05-05 16:20 | 38.79366 | 26.75564 | 33042 ft | 495 kts | 94° |
| 2026-05-05 16:22 | 38.75865 | 26.97104 | 33046 ft | 503 kts | 111° |
| 2026-05-05 16:22 | 38.72141 | 27.04720 | 33051 ft | 507 kts | 126° |
| 2026-05-05 16:23 | 38.67816 | 27.11844 | 33030 ft | 507 kts | 126° |
| 2026-05-05 16:23 | 38.61404 | 27.22578 | 33036 ft | 506 kts | 125° |
| 2026-05-05 16:24 | 38.57168 | 27.29760 | 33021 ft | 506 kts | 125° |
| 2026-05-05 16:25 | 38.50805 | 27.40506 | 33017 ft | 505 kts | 125° |
| 2026-05-05 16:25 | 38.44441 | 27.51199 | 33035 ft | 504 kts | 126° |
| 2026-05-05 16:26 | 38.35952 | 27.65418 | 33030 ft | 504 kts | 126° |
| 2026-05-05 16:27 | 38.31705 | 27.72511 | 33017 ft | 504 kts | 126° |
| 2026-05-05 16:27 | 38.27449 | 27.79603 | 33019 ft | 504 kts | 126° |
| 2026-05-05 16:28 | 38.23187 | 27.86685 | 33026 ft | 505 kts | 126° |
| 2026-05-05 16:28 | 38.18910 | 27.93775 | 33035 ft | 505 kts | 126° |
| 2026-05-05 16:29 | 38.14627 | 28.00862 | 33028 ft | 506 kts | 126° |
| 2026-05-05 16:29 | 38.10333 | 28.07955 | 33039 ft | 507 kts | 126° |
| 2026-05-05 16:30 | 38.06026 | 28.15052 | 33026 ft | 508 kts | 126° |
| 2026-05-05 16:30 | 38.02440 | 28.20951 | 33029 ft | 508 kts | 126° |
| 2026-05-05 16:31 | 37.98135 | 28.28017 | 33005 ft | 505 kts | 126° |
| 2026-05-05 16:31 | 37.93138 | 28.36202 | 33030 ft | 504 kts | 127° |
| 2026-05-05 16:32 | 37.89543 | 28.42077 | 33034 ft | 504 kts | 127° |
| 2026-05-05 16:32 | 37.85243 | 28.49091 | 33037 ft | 504 kts | 127° |
| 2026-05-05 16:33 | 37.80946 | 28.56085 | 33032 ft | 503 kts | 127° |
| 2026-05-05 16:33 | 37.76648 | 28.63068 | 33031 ft | 503 kts | 127° |
| 2026-05-05 16:34 | 37.72406 | 28.70093 | 33034 ft | 502 kts | 122° |
| 2026-05-05 16:34 | 37.69269 | 28.77915 | 33044 ft | 499 kts | 112° |
| 2026-05-05 16:35 | 37.66462 | 28.85930 | 33043 ft | 499 kts | 112° |
| 2026-05-05 16:35 | 37.63611 | 28.93915 | 33036 ft | 499 kts | 112° |
| 2026-05-05 16:36 | 37.62162 | 28.97912 | 32613 ft | 505 kts | 113° |
| 2026-05-05 16:36 | 37.60694 | 29.01935 | 31941 ft | 503 kts | 113° |
| 2026-05-05 16:36 | 37.59229 | 29.05936 | 31224 ft | 503 kts | 114° |
| 2026-05-05 16:36 | 37.57781 | 29.09888 | 30489 ft | 503 kts | 114° |
| 2026-05-05 16:37 | 37.56312 | 29.13892 | 29641 ft | 504 kts | 114° |
| 2026-05-05 16:37 | 37.54840 | 29.17905 | 28724 ft | 505 kts | 114° |
| 2026-05-05 16:37 | 37.53366 | 29.21920 | 27841 ft | 504 kts | 114° |
| 2026-05-05 16:37 | 37.51893 | 29.25927 | 26918 ft | 505 kts | 114° |
| 2026-05-05 16:38 | 37.50418 | 29.29937 | 25967 ft | 505 kts | 115° |
| 2026-05-05 16:38 | 37.48940 | 29.33945 | 25237 ft | 501 kts | 115° |
| 2026-05-05 16:38 | 37.47482 | 29.37893 | 24571 ft | 495 kts | 115° |
| 2026-05-05 16:38 | 37.46037 | 29.41807 | 23911 ft | 491 kts | 115° |
| 2026-05-05 16:39 | 37.44569 | 29.45724 | 23288 ft | 485 kts | 116° |
| 2026-05-05 16:39 | 37.43147 | 29.49426 | 23101 ft | 468 kts | 116° |
| 2026-05-05 16:39 | 37.41740 | 29.53056 | 22858 ft | 455 kts | 116° |
| 2026-05-05 16:39 | 37.40356 | 29.56629 | 22657 ft | 443 kts | 116° |
| 2026-05-05 16:40 | 37.39046 | 29.60024 | 22467 ft | 434 kts | 116° |
| 2026-05-05 16:40 | 37.37707 | 29.63494 | 22328 ft | 450 kts | 116° |
| 2026-05-05 16:40 | 37.36324 | 29.67101 | 22132 ft | 465 kts | 114° |
| 2026-05-05 16:40 | 37.35436 | 29.70996 | 21892 ft | 465 kts | 94° |
| 2026-05-05 16:41 | 37.35528 | 29.75041 | 21531 ft | 464 kts | 78° |
| 2026-05-05 16:41 | 37.36483 | 29.78862 | 21127 ft | 455 kts | 64° |
| 2026-05-05 16:41 | 37.37792 | 29.82470 | 20723 ft | 453 kts | 63° |
| 2026-05-05 16:41 | 37.39121 | 29.86047 | 20255 ft | 451 kts | 63° |
| 2026-05-05 16:42 | 37.40444 | 29.89612 | 19833 ft | 448 kts | 63° |
| 2026-05-05 16:42 | 37.41743 | 29.93156 | 19420 ft | 444 kts | 63° |
| 2026-05-05 16:42 | 37.43016 | 29.96677 | 18979 ft | 440 kts | 63° |
| 2026-05-05 16:42 | 37.44270 | 30.00175 | 18564 ft | 437 kts | 64° |
| 2026-05-05 16:43 | 37.45508 | 30.03651 | 18105 ft | 434 kts | 64° |
| 2026-05-05 16:43 | 37.46733 | 30.07102 | 17645 ft | 430 kts | 64° |
| 2026-05-05 16:43 | 37.47944 | 30.10519 | 17209 ft | 426 kts | 64° |
| 2026-05-05 16:43 | 37.49143 | 30.13904 | 16798 ft | 422 kts | 64° |
| 2026-05-05 16:44 | 37.50332 | 30.17263 | 16374 ft | 418 kts | 64° |
| 2026-05-05 16:44 | 37.51509 | 30.20591 | 15941 ft | 415 kts | 64° |
| 2026-05-05 16:44 | 37.52681 | 30.23907 | 15521 ft | 413 kts | 64° |
| 2026-05-05 16:44 | 37.53842 | 30.27199 | 15103 ft | 410 kts | 64° |
| 2026-05-05 16:45 | 37.54994 | 30.30465 | 14705 ft | 406 kts | 64° |
| 2026-05-05 16:45 | 37.56136 | 30.33704 | 14316 ft | 404 kts | 64° |
| 2026-05-05 16:45 | 37.57272 | 30.36933 | 13917 ft | 401 kts | 64° |
| 2026-05-05 16:45 | 37.58233 | 30.40220 | 13469 ft | 401 kts | 78° |
| 2026-05-05 16:46 | 37.58259 | 30.43720 | 13068 ft | 401 kts | 100° |
| 2026-05-05 16:46 | 37.57408 | 30.47032 | 12765 ft | 396 kts | 116° |
| 2026-05-05 16:46 | 37.55861 | 30.49877 | 12380 ft | 393 kts | 130° |
| 2026-05-05 16:46 | 37.54114 | 30.52450 | 11980 ft | 391 kts | 131° |
| 2026-05-05 16:47 | 37.52332 | 30.55025 | 11596 ft | 390 kts | 131° |
| 2026-05-05 16:47 | 37.50552 | 30.57601 | 11191 ft | 388 kts | 131° |
| 2026-05-05 16:47 | 37.48792 | 30.60165 | 10795 ft | 386 kts | 131° |
| 2026-05-05 16:47 | 37.47056 | 30.62713 | 10403 ft | 380 kts | 131° |
| 2026-05-05 16:48 | 37.45363 | 30.65208 | 10154 ft | 368 kts | 131° |
| 2026-05-05 16:48 | 37.43755 | 30.67584 | 9948 ft | 346 kts | 131° |
| 2026-05-05 16:48 | 37.42223 | 30.69847 | 9566 ft | 333 kts | 130° |
| 2026-05-05 16:48 | 37.40749 | 30.72023 | 9226 ft | 321 kts | 130° |
| 2026-05-05 16:49 | 37.39329 | 30.74120 | 8917 ft | 309 kts | 130° |
| 2026-05-05 16:49 | 37.37958 | 30.76141 | 8626 ft | 297 kts | 130° |
| 2026-05-05 16:49 | 37.36654 | 30.78067 | 8379 ft | 283 kts | 130° |
| 2026-05-05 16:49 | 37.35395 | 30.79922 | 8099 ft | 274 kts | 130° |
| 2026-05-05 16:50 | 37.34183 | 30.81706 | 7810 ft | 263 kts | 129° |
| 2026-05-05 16:50 | 37.33009 | 30.83427 | 7542 ft | 255 kts | 129° |
| 2026-05-05 16:50 | 37.31854 | 30.85094 | 7293 ft | 252 kts | 134° |
| 2026-05-05 16:50 | 37.30351 | 30.86193 | 7004 ft | 254 kts | 168° |
| 2026-05-05 16:51 | 37.28588 | 30.86235 | 6781 ft | 255 kts | 188° |
| 2026-05-05 16:51 | 37.26833 | 30.85885 | 6474 ft | 256 kts | 191° |
| 2026-05-05 16:51 | 37.25085 | 30.85476 | 6196 ft | 255 kts | 191° |
| 2026-05-05 16:51 | 37.23345 | 30.85064 | 5873 ft | 254 kts | 191° |
| 2026-05-05 16:52 | 37.21618 | 30.84664 | 5596 ft | 251 kts | 191° |
| 2026-05-05 16:52 | 37.19904 | 30.84276 | 5312 ft | 250 kts | 191° |
| 2026-05-05 16:52 | 37.18189 | 30.83892 | 5029 ft | 250 kts | 191° |
| 2026-05-05 16:52 | 37.16477 | 30.83515 | 4752 ft | 250 kts | 191° |
| 2026-05-05 16:53 | 37.14767 | 30.83141 | 4463 ft | 250 kts | 191° |
| 2026-05-05 16:53 | 37.13055 | 30.82768 | 4173 ft | 250 kts | 191° |
| 2026-05-05 16:53 | 37.11346 | 30.82397 | 3894 ft | 249 kts | 191° |
| 2026-05-05 16:53 | 37.09640 | 30.82044 | 3610 ft | 248 kts | 189° |
| 2026-05-05 16:54 | 37.07951 | 30.81757 | 3339 ft | 242 kts | 188° |
| 2026-05-05 16:54 | 37.06307 | 30.81512 | 3060 ft | 235 kts | 187° |
| 2026-05-05 16:54 | 37.04704 | 30.81291 | 2765 ft | 229 kts | 186° |
| 2026-05-05 16:54 | 37.03138 | 30.81078 | 2473 ft | 223 kts | 186° |
| 2026-05-05 16:55 | 37.01625 | 30.80869 | 2169 ft | 215 kts | 186° |
| 2026-05-05 16:55 | 37.00191 | 30.80671 | 1882 ft | 203 kts | 186° |
| 2026-05-05 16:55 | 36.98851 | 30.80487 | 1660 ft | 183 kts | 186° |
| 2026-05-05 16:55 | 36.97644 | 30.80320 | 1391 ft | 166 kts | 186° |
| 2026-05-05 16:56 | 36.96557 | 30.80173 | 1178 ft | 148 kts | 186° |
| 2026-05-05 16:56 | 36.95578 | 30.80038 | 1066 ft | 140 kts | 187° |
| 2026-05-05 16:56 | 36.94615 | 30.79892 | 851 ft | 138 kts | 185° |
| 2026-05-05 16:56 | 36.93659 | 30.79761 | 650 ft | 134 kts | 185° |
| 2026-05-05 16:57 | 36.92751 | 30.79649 | 451 ft | 133 kts | 186° |
| 2026-05-05 16:57 | 36.91827 | 30.79519 | 284 ft | 134 kts | 186° |
| 2026-05-05 16:57 | 36.90917 | 30.79392 | 193 ft | 123 kts | 187° |
| 2026-05-05 16:57 | 36.90197 | 30.79292 | 201 ft | 82 kts | 186° |
| 2026-05-05 16:58 | 36.89799 | 30.79241 | 203 ft | 28 kts | 187° |
| 2026-05-05 16:58 | 36.89611 | 30.79229 | 195 ft | 26 kts | 170° |
| 2026-05-05 16:58 | 36.89480 | 30.79293 | 196 ft | 10 kts | 156° |
| 2026-05-05 16:58 | 36.89447 | 30.79311 | 193 ft | 0 kts | 156° |
| 2026-05-05 17:00 | 36.89442 | 30.79315 | 201 ft | 3 kts | 146° |
| 2026-05-05 17:00 | 36.89432 | 30.79350 | 196 ft | 5 kts | 99° |
| 2026-05-05 17:00 | 36.89444 | 30.79405 | 201 ft | 8 kts | 36° |
| 2026-05-05 17:01 | 36.89508 | 30.79418 | 191 ft | 11 kts | 6° |
| 2026-05-05 17:01 | 36.89591 | 30.79429 | 198 ft | 14 kts | 6° |
| 2026-05-05 17:01 | 36.89679 | 30.79442 | 194 ft | 12 kts | 7° |
| 2026-05-05 17:01 | 36.89755 | 30.79457 | 190 ft | 9 kts | 22° |
| 2026-05-05 17:02 | 36.89746 | 30.79513 | 195 ft | 9 kts | 174° |
| 2026-05-05 17:02 | 36.89683 | 30.79505 | 197 ft | 10 kts | 169° |
| 2026-05-05 17:02 | 36.89656 | 30.79575 | 191 ft | 10 kts | 98° |
| 2026-05-05 17:02 | 36.89648 | 30.79673 | 196 ft | 12 kts | 95° |
| 2026-05-05 17:03 | 36.89639 | 30.79769 | 191 ft | 9 kts | 96° |
| 2026-05-05 17:03 | 36.89633 | 30.79837 | 202 ft | 8 kts | 96° |
| 2026-05-05 17:03 | 36.89657 | 30.79897 | 199 ft | 8 kts | 25° |
| 2026-05-05 17:03 | 36.89696 | 30.79908 | 194 ft | 0 kts | 10° |
| 2026-05-05 17:04 | 36.89699 | 30.79909 | 195 ft | 2 kts | 10° |
| 2026-05-05 17:04 | 36.89741 | 30.79917 | 191 ft | 9 kts | 7° |
| 2026-05-05 17:04 | 36.89781 | 30.79958 | 191 ft | 5 kts | 79° |
| 2026-05-05 17:04 | 36.89782 | 30.79988 | 191 ft | 0 kts | 88° |
| 2026-05-05 17:05 | 36.89783 | 30.80002 | 191 ft | 3 kts | 88° |
| 2026-05-05 17:05 | 36.89783 | 30.80009 | 191 ft | 0 kts | 88° |